Time;durP1;ratioP1;P1;durP2;ratioP2;P2;SDS_P1;SDS_P2;PMS_P1;PMS_P2;Temp;Humidity;BMP_temperature;BMP_pressure;BME280_temperature;BME280_humidity;BME280_pressure;Samples;Min_cycle;Max_cycle;Signal;HPM_P1;HPM_P2
2021/01/15 00:02:16;;;;;;;7.38;4.55;;;4.50;64.90;;;;;;5033388;28;20204;-49
2021/01/15 00:04:44;;;;;;;5.57;3.80;;;4.50;64.90;;;;;;5031248;28;20295;-48
2021/01/15 00:07:11;;;;;;;4.63;3.40;;;4.50;64.80;;;;;;5031162;28;20655;-49
2021/01/15 00:09:38;;;;;;;6.40;4.45;;;4.50;65.20;;;;;;5030717;28;20678;-49
2021/01/15 00:12:05;;;;;;;5.20;3.57;;;4.50;65.40;;;;;;5031409;28;20335;-48
2021/01/15 00:14:32;;;;;;;4.85;3.50;;;4.50;65.40;;;;;;5030882;28;20672;-49
2021/01/15 00:16:59;;;;;;;3.58;2.92;;;4.50;65.30;;;;;;5031878;28;20244;-48
2021/01/15 00:19:25;;;;;;;4.13;3.70;;;4.50;65.20;;;;;;5031266;28;20271;-47
2021/01/15 00:21:53;;;;;;;3.47;3.15;;;4.50;65.10;;;;;;5031229;28;20642;-49
2021/01/15 00:24:20;;;;;;;3.38;3.08;;;4.50;65.00;;;;;;5030337;28;20610;-49
2021/01/15 00:26:47;;;;;;;6.15;3.60;;;4.50;65.10;;;;;;5030278;28;20208;-49
2021/01/15 00:29:14;;;;;;;3.73;3.43;;;4.40;65.00;;;;;;5035185;28;20235;-50
2021/01/15 00:31:43;;;;;;;3.80;3.40;;;4.40;65.00;;;;;;5030033;28;20666;-48
2021/01/15 00:34:10;;;;;;;4.38;3.45;;;4.40;65.20;;;;;;5032281;28;20630;-49
2021/01/15 00:36:37;;;;;;;5.00;3.70;;;4.40;65.40;;;;;;5031395;28;20256;-47
2021/01/15 00:39:05;;;;;;;3.80;3.10;;;4.30;65.60;;;;;;5030251;28;20238;-48
2021/01/15 00:41:34;;;;;;;3.38;3.08;;;4.30;65.80;;;;;;5029956;28;20228;-48
2021/01/15 00:44:01;;;;;;;3.22;2.95;;;4.30;66.00;;;;;;5029625;28;20251;-49
2021/01/15 00:46:31;;;;;;;4.70;3.85;;;4.30;66.00;;;;;;5030377;28;20251;-48
2021/01/15 00:48:59;;;;;;;3.90;3.50;;;4.30;66.20;;;;;;5033971;28;20248;-47
2021/01/15 00:51:26;;;;;;;2.63;2.40;;;4.20;66.20;;;;;;5038286;28;20254;-49
2021/01/15 00:53:52;;;;;;;4.55;3.33;;;4.30;66.40;;;;;;5029404;28;20650;-48
2021/01/15 00:56:20;;;;;;;3.65;3.03;;;4.30;66.60;;;;;;5030314;28;20236;-48
2021/01/15 00:58:47;;;;;;;3.70;3.30;;;4.30;66.60;;;;;;5030987;28;20258;-48
2021/01/15 01:01:14;;;;;;;3.63;3.30;;;4.30;66.60;;;;;;5035484;28;20542;-49
2021/01/15 01:03:41;;;;;;;3.13;2.83;;;4.20;67.40;;;;;;5032878;28;20243;-49
2021/01/15 01:06:12;;;;;;;3.40;3.10;;;4.20;66.50;;;;;;5029384;28;20230;-48
2021/01/15 01:08:38;;;;;;;3.20;2.90;;;4.20;67.30;;;;;;5030784;28;20284;-48
2021/01/15 01:11:10;;;;;;;4.20;2.97;;;4.20;66.80;;;;;;5030206;28;20243;-47
2021/01/15 01:13:38;;;;;;;3.27;2.90;;;4.20;66.70;;;;;;5029453;28;20583;-48
2021/01/15 01:16:05;;;;;;;6.22;4.05;;;4.20;66.80;;;;;;5029244;28;20643;-48
2021/01/15 01:18:33;;;;;;;3.45;3.05;;;4.20;66.80;;;;;;5029766;28;20290;-47
2021/01/15 01:21:00;;;;;;;3.92;3.55;;;4.20;67.00;;;;;;5035044;28;20235;-47
2021/01/15 01:23:27;;;;;;;3.65;3.05;;;4.20;67.00;;;;;;5048988;28;20235;-48
2021/01/15 01:25:53;;;;;;;4.07;3.60;;;4.20;67.00;;;;;;5031678;28;20228;-47
2021/01/15 01:28:20;;;;;;;6.78;4.07;;;4.20;67.00;;;;;;5028795;28;20259;-47
2021/01/15 01:30:48;;;;;;;4.28;3.42;;;4.10;67.00;;;;;;5029609;28;20243;-48
2021/01/15 01:33:15;;;;;;;4.53;3.45;;;4.10;67.10;;;;;;5029650;28;20680;-48
2021/01/15 01:35:41;;;;;;;6.00;3.10;;;4.10;67.30;;;;;;5028364;28;20232;-48
2021/01/15 01:38:09;;;;;;;3.78;3.40;;;4.10;67.60;;;;;;5029377;28;20319;-47
2021/01/15 01:40:36;;;;;;;4.60;3.10;;;4.00;67.70;;;;;;5029128;28;20219;-48
2021/01/15 01:43:02;;;;;;;3.53;2.75;;;4.00;68.20;;;;;;5029267;28;20246;-48
2021/01/15 01:45:29;;;;;;;4.20;3.13;;;4.00;67.50;;;;;;5030092;28;20239;-48
2021/01/15 01:47:57;;;;;;;3.03;2.72;;;4.00;67.50;;;;;;5029488;28;20234;-48
2021/01/15 01:50:24;;;;;;;3.53;2.80;;;4.10;68.50;;;;;;5028879;28;20334;-48
2021/01/15 01:52:51;;;;;;;6.65;3.13;;;4.10;67.80;;;;;;5028924;28;20255;-48
2021/01/15 01:55:18;;;;;;;5.13;3.00;;;4.10;67.90;;;;;;5028879;28;20227;-49
2021/01/15 01:57:44;;;;;;;3.50;3.00;;;4.10;67.70;;;;;;5030906;28;20209;-48
2021/01/15 02:00:12;;;;;;;3.58;3.20;;;4.10;67.60;;;;;;5033334;28;20252;-49
2021/01/15 02:02:39;;;;;;;2.63;2.30;;;4.10;69.40;;;;;;5031079;28;20270;-49
2021/01/15 02:05:08;;;;;;;4.18;2.42;;;4.10;70.50;;;;;;5032141;28;21164;-49
2021/01/15 02:07:34;;;;;;;3.60;3.30;;;4.20;71.80;;;;;;5032384;28;20550;-49
2021/01/15 02:10:04;;;;;;;3.80;2.97;;;4.20;71.80;;;;;;5032887;28;21077;-48
2021/01/15 02:12:37;;;;;;;3.30;2.92;;;4.20;72.80;;;;;;5012991;28;21199;-49
2021/01/15 02:15:08;;;;;;;6.55;4.07;;;4.20;72.60;;;;;;5013352;28;20689;-48
2021/01/15 02:17:36;;;;;;;2.30;2.10;;;4.20;71.40;;;;;;5012205;28;20263;-49
2021/01/15 02:20:22;;;;;;;3.35;2.92;;;4.10;70.20;;;;;;5013145;28;20347;-49
2021/01/15 02:22:59;;;;;;;6.95;3.17;;;4.10;69.80;;;;;;5031728;28;20307;-48
2021/01/15 02:25:53;;;;;;;2.90;2.70;;;4.10;69.40;;;;;;5032442;28;20228;-48
2021/01/15 02:28:45;;;;;;;4.03;3.45;;;4.00;69.20;;;;;;5013972;28;20223;-48
2021/01/15 02:31:35;;;;;;;3.53;2.70;;;4.10;68.90;;;;;;5022376;28;20262;-48
2021/01/15 02:34:15;;;;;;;2.95;2.67;;;4.00;69.10;;;;;;5032140;28;20314;-48
2021/01/15 02:36:45;;;;;;;3.15;2.95;;;4.00;69.10;;;;;;5032056;28;20215;-48
2021/01/15 02:39:15;;;;;;;4.13;3.30;;;4.00;69.20;;;;;;5031128;28;20692;-49
2021/01/15 02:41:42;;;;;;;4.18;3.78;;;4.00;69.10;;;;;;5032906;28;20631;-48
2021/01/15 02:44:12;;;;;;;3.58;3.10;;;3.90;69.10;;;;;;5032089;28;20236;-48
2021/01/15 02:46:44;;;;;;;4.10;3.35;;;3.90;69.10;;;;;;5031727;28;20216;-49
2021/01/15 02:49:12;;;;;;;4.22;3.00;;;3.90;69.30;;;;;;5031748;28;20235;-48
2021/01/15 02:51:39;;;;;;;3.22;2.92;;;3.90;69.30;;;;;;5031932;28;20342;-48
2021/01/15 02:54:06;;;;;;;2.60;2.40;;;3.80;69.20;;;;;;5032125;28;20228;-49
2021/01/15 02:56:33;;;;;;;3.35;3.05;;;3.90;69.50;;;;;;5030929;28;20232;-48
2021/01/15 02:58:59;;;;;;;3.42;3.13;;;3.90;69.60;;;;;;5031367;28;20252;-49
2021/01/15 03:01:27;;;;;;;4.40;3.30;;;3.80;69.70;;;;;;5031580;28;20231;-48
2021/01/15 03:03:57;;;;;;;3.73;3.43;;;3.80;69.70;;;;;;5031055;28;20634;-49
2021/01/15 03:06:29;;;;;;;5.35;3.05;;;3.80;69.70;;;;;;5031426;28;20650;-48
2021/01/15 03:08:56;;;;;;;4.83;3.10;;;3.80;69.70;;;;;;5029964;28;20271;-48
2021/01/15 03:11:23;;;;;;;4.50;2.90;;;3.80;69.90;;;;;;5031180;28;20936;-49
2021/01/15 03:13:50;;;;;;;3.30;3.00;;;3.80;69.90;;;;;;5030369;28;20681;-48
2021/01/15 03:16:17;;;;;;;2.90;2.67;;;3.80;69.90;;;;;;5030762;28;20236;-48
2021/01/15 03:18:44;;;;;;;4.20;2.80;;;3.70;69.70;;;;;;5030302;28;21218;-48
2021/01/15 03:21:10;;;;;;;4.10;2.70;;;3.70;69.70;;;;;;5030201;28;20281;-48
2021/01/15 03:23:38;;;;;;;3.28;2.60;;;3.80;69.80;;;;;;5029884;28;20645;-47
2021/01/15 03:26:05;;;;;;;4.10;2.60;;;3.80;69.60;;;;;;5028211;28;20241;-48
2021/01/15 03:28:32;;;;;;;3.92;2.75;;;3.70;69.60;;;;;;5030398;28;20263;-47
2021/01/15 03:30:58;;;;;;;4.23;2.70;;;3.70;69.70;;;;;;5030453;28;20271;-48
2021/01/15 03:33:25;;;;;;;5.90;2.83;;;3.70;69.60;;;;;;5030759;28;20784;-49
2021/01/15 03:35:55;;;;;;;3.25;2.90;;;3.70;69.70;;;;;;5030526;28;20665;-49
2021/01/15 03:38:22;;;;;;;3.85;2.92;;;3.70;70.50;;;;;;5029460;28;20272;-48
2021/01/15 03:40:50;;;;;;;2.60;2.40;;;3.70;69.80;;;;;;5029894;28;20634;-49
2021/01/15 03:43:17;;;;;;;3.93;2.50;;;3.70;69.70;;;;;;5030554;28;20226;-48
2021/01/15 03:45:44;;;;;;;5.38;3.40;;;3.70;69.70;;;;;;5030133;28;20690;-48
2021/01/15 03:48:13;;;;;;;3.80;3.03;;;3.70;69.60;;;;;;5030781;28;20322;-49
2021/01/15 03:50:39;;;;;;;3.40;2.80;;;3.70;69.50;;;;;;5029585;28;20239;-48
2021/01/15 03:53:06;;;;;;;6.10;3.30;;;3.70;69.50;;;;;;5027906;28;20208;-48
2021/01/15 03:55:33;;;;;;;4.25;2.78;;;3.70;69.50;;;;;;5028660;28;21272;-48
2021/01/15 03:58:01;;;;;;;2.97;2.57;;;3.70;69.50;;;;;;5011151;28;20281;-49
2021/01/15 04:00:27;;;;;;;4.15;3.72;;;3.70;69.40;;;;;;5029461;28;20689;-48
2021/01/15 04:02:54;;;;;;;5.15;3.05;;;3.80;69.50;;;;;;5029191;28;20227;-49
2021/01/15 04:05:21;;;;;;;3.87;2.60;;;3.70;69.30;;;;;;5024463;28;20580;-48
2021/01/15 04:07:48;;;;;;;3.97;2.60;;;3.70;69.40;;;;;;5028282;28;20670;-49
2021/01/15 04:10:16;;;;;;;3.15;2.80;;;3.70;69.50;;;;;;5030311;28;20259;-48
2021/01/15 04:12:43;;;;;;;2.63;2.42;;;3.70;69.70;;;;;;5030646;28;20284;-47
2021/01/15 04:15:12;;;;;;;4.40;3.25;;;3.70;69.80;;;;;;5030106;28;20211;-48
2021/01/15 04:17:39;;;;;;;3.42;3.10;;;3.70;69.70;;;;;;5029965;28;20306;-47
2021/01/15 04:20:07;;;;;;;2.88;2.53;;;3.70;69.70;;;;;;5029499;28;20288;-48
2021/01/15 04:22:34;;;;;;;3.08;2.53;;;3.70;69.70;;;;;;5029534;28;20228;-47
2021/01/15 04:25:01;;;;;;;2.85;2.55;;;3.70;69.80;;;;;;5029592;28;20695;-48
2021/01/15 04:27:28;;;;;;;3.40;3.10;;;3.70;69.80;;;;;;5029800;28;20246;-48
2021/01/15 04:29:55;;;;;;;4.35;3.38;;;3.70;70.70;;;;;;5024706;28;20249;-49
2021/01/15 04:32:23;;;;;;;3.25;3.00;;;3.70;70.00;;;;;;5029915;28;20253;-49
2021/01/15 04:34:49;;;;;;;8.77;3.00;;;3.70;70.00;;;;;;5029830;28;20326;-50
2021/01/15 04:37:16;;;;;;;3.40;3.13;;;3.70;69.90;;;;;;5028824;28;20273;-49
2021/01/15 04:39:43;;;;;;;5.00;4.10;;;3.70;69.90;;;;;;5029432;28;20266;-50
2021/01/15 04:42:10;;;;;;;4.15;3.10;;;3.60;69.80;;;;;;5029396;28;20242;-49
2021/01/15 04:44:36;;;;;;;4.15;3.75;;;3.60;70.10;;;;;;5029024;28;20238;-49
2021/01/15 04:47:03;;;;;;;6.35;3.40;;;3.60;70.60;;;;;;5029148;28;20199;-49
2021/01/15 04:49:31;;;;;;;3.50;3.20;;;3.70;70.60;;;;;;5029153;28;20668;-49
2021/01/15 04:52:01;;;;;;;4.10;3.20;;;3.70;70.50;;;;;;5029427;28;20234;-49
2021/01/15 04:54:36;;;;;;;3.40;3.03;;;3.70;70.70;;;;;;5029329;28;20220;-49
2021/01/15 04:57:06;;;;;;;3.75;3.25;;;3.70;70.90;;;;;;5029559;28;20218;-49
2021/01/15 04:59:34;;;;;;;3.05;2.70;;;3.70;70.90;;;;;;5028795;28;20250;-48
2021/01/15 05:02:06;;;;;;;4.60;3.20;;;3.70;71.00;;;;;;5029421;28;20708;-48
2021/01/15 05:04:34;;;;;;;4.32;3.08;;;3.80;70.90;;;;;;5029310;28;20279;-49
2021/01/15 05:07:02;;;;;;;4.55;3.10;;;3.80;71.00;;;;;;5029175;28;20236;-48
2021/01/15 05:09:30;;;;;;;3.88;3.03;;;3.80;71.00;;;;;;5029134;28;20254;-49
2021/01/15 05:11:57;;;;;;;5.43;3.40;;;3.80;70.90;;;;;;5029413;28;20645;-49
2021/01/15 05:14:24;;;;;;;5.60;3.70;;;3.90;71.10;;;;;;5029111;28;20239;-49
2021/01/15 05:16:51;;;;;;;10.48;3.53;;;3.90;71.00;;;;;;5028771;28;20674;-49
2021/01/15 05:19:18;;;;;;;4.07;3.10;;;3.90;71.10;;;;;;5029015;28;20684;-49
2021/01/15 05:21:50;;;;;;;4.80;3.60;;;3.90;70.90;;;;;;5029279;28;20235;-48
2021/01/15 05:24:17;;;;;;;5.63;3.75;;;4.00;71.00;;;;;;5028389;28;20231;-49
2021/01/15 05:26:43;;;;;;;3.03;2.83;;;4.00;70.90;;;;;;5029559;28;20204;-49
2021/01/15 05:29:10;;;;;;;3.43;3.13;;;4.00;70.80;;;;;;5029067;28;21058;-49
2021/01/15 05:31:50;;;;;;;4.22;3.80;;;4.00;70.70;;;;;;5029599;28;20673;-48
2021/01/15 05:34:17;;;;;;;5.30;3.28;;;4.00;70.90;;;;;;5015432;28;20681;-48
2021/01/15 05:36:45;;;;;;;3.37;2.63;;;4.00;70.90;;;;;;5032900;28;20215;-49
2021/01/15 05:39:14;;;;;;;7.05;4.13;;;4.10;71.10;;;;;;5032645;28;21211;-48
2021/01/15 05:41:41;;;;;;;5.23;3.20;;;4.10;71.10;;;;;;5032992;28;20277;-48
2021/01/15 05:44:08;;;;;;;3.90;3.30;;;4.00;70.80;;;;;;5033128;28;20683;-50
2021/01/15 05:46:35;;;;;;;4.13;3.80;;;4.10;71.00;;;;;;5032422;28;20563;-49
2021/01/15 05:49:09;;;;;;;4.00;3.47;;;4.10;71.00;;;;;;5033157;28;20231;-48
2021/01/15 05:51:36;;;;;;;3.80;3.50;;;4.10;70.90;;;;;;5031986;28;20309;-49
2021/01/15 05:54:05;;;;;;;5.38;3.60;;;4.10;70.80;;;;;;5032415;28;20681;-49
2021/01/15 05:56:44;;;;;;;3.88;3.58;;;4.10;70.80;;;;;;5031812;28;20345;-48
2021/01/15 05:59:12;;;;;;;3.72;3.33;;;4.10;70.80;;;;;;5032057;28;20296;-48
2021/01/15 06:01:46;;;;;;;3.60;3.15;;;4.10;70.90;;;;;;5032927;28;20227;-48
2021/01/15 06:04:13;;;;;;;4.55;3.50;;;4.10;70.80;;;;;;5031796;28;20234;-50
2021/01/15 06:06:41;;;;;;;4.10;2.97;;;4.10;70.90;;;;;;5014494;28;20200;-50
2021/01/15 06:09:09;;;;;;;4.63;3.58;;;4.00;70.70;;;;;;5032330;28;20263;-47
2021/01/15 06:11:36;;;;;;;4.25;3.08;;;4.00;71.00;;;;;;5033023;28;20231;-48
2021/01/15 06:14:03;;;;;;;6.10;4.10;;;4.00;71.20;;;;;;5033119;28;20223;-48
2021/01/15 06:16:30;;;;;;;6.18;4.80;;;4.00;71.20;;;;;;5032895;28;20596;-48
2021/01/15 06:19:01;;;;;;;5.93;4.60;;;4.00;71.40;;;;;;5032327;28;20248;-48
2021/01/15 06:21:31;;;;;;;4.95;4.45;;;4.00;71.60;;;;;;5032488;28;20287;-48
2021/01/15 06:24:05;;;;;;;4.80;4.22;;;4.00;71.80;;;;;;5033188;28;20499;-48
2021/01/15 06:26:37;;;;;;;4.33;3.93;;;4.00;72.10;;;;;;5032410;28;20224;-49
2021/01/15 06:29:08;;;;;;;7.22;4.43;;;4.00;72.10;;;;;;5030710;28;20719;-49
2021/01/15 06:31:45;;;;;;;7.17;4.27;;;4.00;72.20;;;;;;5012985;28;20523;-49
2021/01/15 06:34:12;;;;;;;8.25;4.50;;;4.00;72.50;;;;;;5013073;28;20633;-48
2021/01/15 06:36:45;;;;;;;10.20;6.75;;;4.00;72.80;;;;;;5013129;28;20216;-49
2021/01/15 06:39:12;;;;;;;7.50;6.00;;;4.00;72.90;;;;;;5012708;28;20245;-48
2021/01/15 06:41:40;;;;;;;8.98;5.65;;;4.00;73.00;;;;;;5012986;28;20219;-49
2021/01/15 06:44:09;;;;;;;7.75;6.20;;;4.00;73.00;;;;;;5012545;28;20224;-49
2021/01/15 06:46:36;;;;;;;7.63;5.90;;;4.00;72.90;;;;;;5012479;28;20293;-49
2021/01/15 06:49:04;;;;;;;6.40;4.70;;;4.00;73.00;;;;;;5012058;28;20232;-49
2021/01/15 06:51:34;;;;;;;18.65;7.20;;;4.00;73.10;;;;;;5012385;28;20665;-49
2021/01/15 06:54:03;;;;;;;11.07;6.45;;;4.00;73.30;;;;;;5011920;28;20220;-49
2021/01/15 06:56:30;;;;;;;10.95;7.35;;;3.90;73.50;;;;;;5031419;28;20235;-48
2021/01/15 06:58:58;;;;;;;9.47;6.70;;;3.90;73.70;;;;;;5031330;28;20270;-48
2021/01/15 07:01:26;;;;;;;8.80;7.90;;;3.90;73.80;;;;;;5031914;28;20658;-48
2021/01/15 07:04:24;;;;;;;7.77;5.80;;;3.90;73.90;;;;;;5031583;28;20295;-48
2021/01/15 07:07:14;;;;;;;9.85;6.10;;;3.80;74.40;;;;;;5031132;28;20670;-49
2021/01/15 07:09:41;;;;;;;8.00;6.53;;;3.80;74.50;;;;;;5032058;28;20231;-47
2021/01/15 07:12:10;;;;;;;8.45;6.28;;;3.80;74.70;;;;;;5032070;28;20196;-48
2021/01/15 07:14:45;;;;;;;8.03;6.07;;;3.80;74.90;;;;;;5030564;28;20209;-48
2021/01/15 07:17:14;;;;;;;10.13;6.13;;;3.70;74.80;;;;;;5030738;28;20661;-48
2021/01/15 07:19:42;;;;;;;8.40;7.15;;;3.70;75.70;;;;;;5030639;28;21261;-48
2021/01/15 07:22:10;;;;;;;6.75;5.88;;;3.70;75.20;;;;;;5031242;28;20200;-48
2021/01/15 07:24:37;;;;;;;7.45;6.22;;;3.70;75.20;;;;;;5030757;28;20243;-48
2021/01/15 07:27:05;;;;;;;11.80;6.10;;;3.70;75.20;;;;;;5031571;28;20238;-48
2021/01/15 07:29:34;;;;;;;9.05;6.95;;;3.70;75.50;;;;;;5030945;28;20236;-48
2021/01/15 07:32:03;;;;;;;6.50;5.72;;;3.70;75.80;;;;;;5030654;28;20238;-50
2021/01/15 07:34:30;;;;;;;10.45;6.15;;;3.60;76.10;;;;;;5030265;28;20240;-50
2021/01/15 07:36:57;;;;;;;9.40;8.02;;;3.60;76.30;;;;;;5031018;28;20644;-49
2021/01/15 07:39:24;;;;;;;8.65;6.80;;;3.60;76.60;;;;;;5030378;28;20321;-49
2021/01/15 07:41:53;;;;;;;7.07;6.35;;;3.60;76.90;;;;;;5030689;28;20246;-49
2021/01/15 07:44:38;;;;;;;9.90;7.68;;;3.60;77.10;;;;;;5030821;28;20238;-49
2021/01/15 07:47:15;;;;;;;10.38;7.30;;;3.60;77.20;;;;;;5030898;28;20305;-50
2021/01/15 07:49:48;;;;;;;8.00;6.90;;;3.60;77.10;;;;;;5030612;28;20220;-49
2021/01/15 07:52:15;;;;;;;8.63;6.25;;;3.70;77.60;;;;;;5030546;28;20338;-49
2021/01/15 07:55:02;;;;;;;5.47;4.97;;;3.70;77.70;;;;;;5029920;28;20291;-47
2021/01/15 07:57:30;;;;;;;8.40;6.88;;;3.60;77.60;;;;;;5030546;28;20621;-47
2021/01/15 07:59:57;;;;;;;8.93;6.70;;;3.60;78.00;;;;;;5029526;28;20734;-47
2021/01/15 08:02:24;;;;;;;9.95;7.38;;;3.60;78.10;;;;;;5030326;28;20236;-48
2021/01/15 08:05:02;;;;;;;13.65;6.75;;;3.60;78.10;;;;;;5030355;28;20204;-48
2021/01/15 08:07:33;;;;;;;10.13;8.35;;;3.60;78.00;;;;;;5030730;28;20269;-49
2021/01/15 08:09:59;;;;;;;11.30;7.15;;;3.60;78.00;;;;;;5031159;28;20250;-48
2021/01/15 08:12:26;;;;;;;9.95;7.32;;;3.60;77.90;;;;;;5030556;28;20243;-48
2021/01/15 08:14:53;;;;;;;8.65;7.50;;;3.60;78.00;;;;;;5030378;28;20548;-49
2021/01/15 08:17:27;;;;;;;8.93;6.97;;;3.60;78.20;;;;;;5031209;28;20254;-50
2021/01/15 08:19:53;;;;;;;7.82;6.63;;;3.60;78.20;;;;;;5030695;28;20255;-50
2021/01/15 08:22:21;;;;;;;8.60;7.05;;;3.70;78.00;;;;;;5031050;28;20211;-49
2021/01/15 08:24:48;;;;;;;9.32;8.32;;;3.70;77.90;;;;;;5030130;28;20273;-49
2021/01/15 08:27:16;;;;;;;16.73;8.65;;;3.70;77.70;;;;;;5030377;28;20212;-49
2021/01/15 08:29:43;;;;;;;11.68;9.35;;;3.80;77.70;;;;;;5025908;28;20256;-50
2021/01/15 08:32:10;;;;;;;13.15;8.88;;;3.80;77.60;;;;;;5011357;28;20237;-50
2021/01/15 08:34:38;;;;;;;8.57;7.65;;;3.80;77.60;;;;;;5010799;28;20241;-49
2021/01/15 08:37:05;;;;;;;10.80;9.37;;;3.90;77.70;;;;;;5010758;28;20251;-51
2021/01/15 08:39:47;;;;;;;12.43;9.90;;;3.90;77.50;;;;;;5017766;28;20706;-52
2021/01/15 08:42:14;;;;;;;13.70;9.53;;;4.00;77.50;;;;;;5027986;28;20770;-48
2021/01/15 08:44:41;;;;;;;12.73;10.17;;;4.10;77.70;;;;;;5030058;28;20633;-49
2021/01/15 08:47:12;;;;;;;10.60;8.30;;;4.30;77.50;;;;;;5030599;28;20634;-50
2021/01/15 08:49:40;;;;;;;14.40;9.83;;;4.40;76.60;;;;;;5030300;28;20680;-49
2021/01/15 08:52:07;;;;;;;12.03;9.00;;;4.50;75.60;;;;;;5030972;28;20745;-49
2021/01/15 08:54:36;;;;;;;11.70;8.00;;;4.70;75.10;;;;;;5028690;28;20610;-50
2021/01/15 08:57:03;;;;;;;13.00;8.60;;;4.70;74.10;;;;;;5030757;28;20627;-50
2021/01/15 08:59:30;;;;;;;15.63;9.13;;;4.80;73.90;;;;;;5029734;28;20695;-49
2021/01/15 09:01:58;;;;;;;12.17;8.80;;;4.90;73.80;;;;;;5030834;28;20633;-51
2021/01/15 09:04:25;;;;;;;10.23;9.13;;;4.90;72.50;;;;;;5030271;28;20638;-49
2021/01/15 09:06:54;;;;;;;9.90;8.47;;;4.90;71.90;;;;;;5028489;28;21162;-50
2021/01/15 09:09:21;;;;;;;9.93;7.93;;;5.00;73.00;;;;;;5029537;28;20667;-50
2021/01/15 09:11:48;;;;;;;12.30;8.53;;;5.20;73.40;;;;;;5029979;28;20677;-50
2021/01/15 09:14:18;;;;;;;12.83;7.77;;;5.30;72.60;;;;;;5030017;28;20672;-51
2021/01/15 09:16:46;;;;;;;12.67;8.97;;;5.40;71.40;;;;;;5030436;28;20663;-51
2021/01/15 09:19:12;;;;;;;8.70;7.50;;;5.50;71.50;;;;;;5031557;28;20663;-50
2021/01/15 09:21:46;;;;;;;10.33;8.40;;;5.40;72.40;;;;;;5030958;28;21268;-49
2021/01/15 09:24:14;;;;;;;11.50;10.30;;;5.50;73.60;;;;;;5029193;28;20624;-50
2021/01/15 09:26:41;;;;;;;11.77;10.40;;;5.50;72.60;;;;;;5030083;28;21187;-49
2021/01/15 09:29:09;;;;;;;11.63;9.73;;;5.60;72.40;;;;;;5030167;28;20688;-51
2021/01/15 09:31:37;;;;;;;11.30;8.63;;;5.70;73.90;;;;;;5019427;28;20674;-49
2021/01/15 09:34:04;;;;;;;9.87;8.60;;;5.70;73.90;;;;;;5010469;28;20636;-48
2021/01/15 09:36:31;;;;;;;10.20;8.63;;;5.60;73.70;;;;;;5010717;28;20627;-49
2021/01/15 09:38:58;;;;;;;10.53;9.33;;;5.70;72.90;;;;;;5011150;28;21099;-48
2021/01/15 09:41:26;;;;;;;16.00;9.60;;;5.60;72.10;;;;;;5010978;28;20659;-49
2021/01/15 09:43:54;;;;;;;12.10;9.47;;;5.60;71.90;;;;;;5010494;28;20659;-48
2021/01/15 09:46:25;;;;;;;14.10;10.90;;;5.70;72.00;;;;;;5010883;28;20968;-49
2021/01/15 09:48:52;;;;;;;10.83;9.30;;;5.80;73.10;;;;;;4993107;28;20685;-48
2021/01/15 09:51:22;;;;;;;11.40;10.20;;;6.00;72.20;;;;;;5022406;28;20652;-50
2021/01/15 09:53:49;;;;;;;11.20;8.07;;;6.40;71.60;;;;;;5030246;28;20633;-50
2021/01/15 09:56:23;;;;;;;9.80;8.40;;;6.80;66.80;;;;;;5028804;28;20642;-48
2021/01/15 09:58:51;;;;;;;13.10;7.47;;;7.10;63.50;;;;;;5030609;28;21237;-49
2021/01/15 10:01:18;;;;;;;8.90;7.63;;;7.50;64.00;;;;;;5029779;28;20679;-50
2021/01/15 10:03:45;;;;;;;11.47;9.43;;;7.80;62.20;;;;;;5030892;28;20646;-50
2021/01/15 10:06:15;;;;;;;9.03;8.03;;;8.00;59.70;;;;;;5030418;28;20635;-51
2021/01/15 10:08:42;;;;;;;12.00;9.80;;;8.10;58.60;;;;;;5029775;28;21032;-49
2021/01/15 10:11:09;;;;;;;11.10;9.47;;;7.90;58.40;;;;;;5030322;28;20617;-50
2021/01/15 10:13:36;;;;;;;11.80;10.30;;;7.90;58.10;;;;;;5030150;28;20623;-49
2021/01/15 10:16:07;;;;;;;9.70;8.70;;;7.80;57.90;;;;;;5029927;28;21047;-49
2021/01/15 10:18:34;;;;;;;9.77;8.77;;;7.70;58.70;;;;;;5030760;28;20657;-54
2021/01/15 10:21:01;;;;;;;9.70;8.40;;;7.60;58.20;;;;;;5033446;28;20664;-49
2021/01/15 10:23:28;;;;;;;11.10;9.23;;;7.60;59.40;;;;;;5033212;28;20661;-50
2021/01/15 10:25:55;;;;;;;10.17;9.07;;;7.50;58.80;;;;;;5033080;28;20656;-50
2021/01/15 10:28:22;;;;;;;11.13;9.77;;;7.40;58.50;;;;;;5033539;28;20696;-49
2021/01/15 10:30:49;;;;;;;9.23;8.20;;;7.30;58.20;;;;;;5032917;28;20944;-48
2021/01/15 10:33:20;;;;;;;8.77;7.87;;;7.20;58.60;;;;;;5033181;28;20617;-49
2021/01/15 10:35:47;;;;;;;11.33;9.57;;;7.20;59.70;;;;;;5032794;28;20676;-49
2021/01/15 10:38:14;;;;;;;14.77;10.60;;;7.10;59.10;;;;;;5032338;28;20701;-49
2021/01/15 10:40:41;;;;;;;12.40;9.50;;;7.10;58.60;;;;;;5033069;28;20669;-48
2021/01/15 10:43:07;;;;;;;11.90;10.53;;;7.10;59.10;;;;;;5032408;28;20639;-48
2021/01/15 10:45:34;;;;;;;11.27;9.20;;;7.10;58.40;;;;;;5031890;28;21019;-49
2021/01/15 10:48:02;;;;;;;11.00;9.40;;;7.10;58.30;;;;;;5030856;28;21270;-48
2021/01/15 10:50:30;;;;;;;18.60;11.27;;;7.10;58.50;;;;;;5033218;28;20629;-49
2021/01/15 10:52:57;;;;;;;16.00;11.53;;;7.10;58.70;;;;;;5032068;28;20668;-50
2021/01/15 10:55:24;;;;;;;11.50;9.70;;;7.20;59.50;;;;;;5032100;28;20668;-48
2021/01/15 10:57:51;;;;;;;15.07;10.23;;;7.20;59.40;;;;;;5032213;28;20657;-49
2021/01/15 11:00:18;;;;;;;12.30;10.93;;;7.20;58.60;;;;;;5031999;28;21077;-49
2021/01/15 11:02:48;;;;;;;13.77;11.33;;;7.20;59.00;;;;;;5032580;28;21116;-49
2021/01/15 11:05:15;;;;;;;13.93;10.40;;;7.20;59.30;;;;;;5032000;28;20634;-50
2021/01/15 11:07:44;;;;;;;9.20;8.30;;;7.10;58.90;;;;;;5032487;28;20637;-47
2021/01/15 11:10:12;;;;;;;13.40;10.53;;;7.10;58.70;;;;;;5032366;28;20658;-49
2021/01/15 11:12:39;;;;;;;14.53;9.27;;;7.20;59.10;;;;;;5032310;28;20630;-48
2021/01/15 11:15:07;;;;;;;11.20;9.97;;;7.10;58.70;;;;;;5031495;28;20985;-49
2021/01/15 11:17:37;;;;;;;12.57;11.27;;;7.20;58.80;;;;;;5031843;28;20662;-49
2021/01/15 11:20:05;;;;;;;12.07;10.07;;;7.20;60.60;;;;;;5031884;28;21086;-56
2021/01/15 11:22:32;;;;;;;11.90;10.27;;;7.20;60.30;;;;;;5032677;28;20980;-48
2021/01/15 11:24:59;;;;;;;12.33;10.90;;;7.20;60.00;;;;;;5031230;28;20641;-48
2021/01/15 11:27:26;;;;;;;12.20;9.93;;;7.20;59.80;;;;;;5031716;28;20630;-48
2021/01/15 11:29:55;;;;;;;11.87;10.63;;;7.20;59.50;;;;;;5030420;28;20710;-49
2021/01/15 11:32:22;;;;;;;12.40;10.43;;;7.20;59.20;;;;;;5031904;28;21080;-49
2021/01/15 11:34:49;;;;;;;11.43;9.83;;;7.20;59.30;;;;;;5031676;28;20633;-49
2021/01/15 11:37:17;;;;;;;14.57;9.97;;;7.20;59.30;;;;;;5032449;28;21335;-50
2021/01/15 11:39:44;;;;;;;13.20;9.70;;;7.10;59.00;;;;;;5032854;28;20693;-48
2021/01/15 11:42:12;;;;;;;11.63;10.43;;;7.10;59.20;;;;;;5031675;28;20683;-48
2021/01/15 11:44:39;;;;;;;13.00;10.50;;;7.10;59.40;;;;;;5032080;28;20645;-52
2021/01/15 11:47:06;;;;;;;12.10;10.27;;;7.10;59.70;;;;;;5031999;28;20991;-48
2021/01/15 11:49:32;;;;;;;13.30;10.17;;;7.10;59.70;;;;;;5031268;28;20753;-49
2021/01/15 11:51:59;;;;;;;14.50;11.90;;;7.10;60.00;;;;;;5032082;28;20626;-48
2021/01/15 11:54:26;;;;;;;13.53;10.67;;;7.10;61.10;;;;;;5031251;28;20632;-49
2021/01/15 11:56:53;;;;;;;14.00;11.17;;;7.10;61.20;;;;;;5017769;28;20638;-51
2021/01/15 11:59:21;;;;;;;13.27;11.27;;;7.00;61.40;;;;;;5011351;28;20706;-48
2021/01/15 12:01:48;;;;;;;16.47;10.90;;;7.00;61.40;;;;;;5012779;28;20658;-48
2021/01/15 12:04:14;;;;;;;12.70;11.30;;;7.00;61.50;;;;;;5012587;28;20618;-48
2021/01/15 12:06:41;;;;;;;13.40;10.90;;;7.00;62.20;;;;;;5015034;28;20695;-50
2021/01/15 12:09:08;;;;;;;16.63;12.17;;;7.00;62.60;;;;;;5031643;28;20661;-49
2021/01/15 12:11:37;;;;;;;12.73;9.80;;;7.00;63.20;;;;;;5031849;28;20652;-50
2021/01/15 12:14:03;;;;;;;16.83;12.00;;;7.00;63.60;;;;;;5031329;28;21224;-48
2021/01/15 12:16:31;;;;;;;15.40;12.17;;;7.00;64.10;;;;;;5031361;28;20672;-48
2021/01/15 12:18:58;;;;;;;13.57;11.17;;;7.00;64.40;;;;;;5031341;28;21194;-49
2021/01/15 12:21:25;;;;;;;12.50;11.30;;;7.00;64.50;;;;;;5031252;28;20724;-48
2021/01/15 12:23:52;;;;;;;17.10;13.40;;;7.00;64.60;;;;;;5030470;28;20662;-50
2021/01/15 12:26:18;;;;;;;13.60;11.50;;;7.00;64.90;;;;;;5031160;28;20633;-50
2021/01/15 12:28:45;;;;;;;13.10;10.50;;;7.00;64.90;;;;;;5031392;28;20662;-49
2021/01/15 12:31:12;;;;;;;14.47;11.80;;;7.10;65.00;;;;;;5031460;28;20644;-49
2021/01/15 12:33:41;;;;;;;12.47;11.00;;;7.10;65.00;;;;;;5031041;28;20764;-48
2021/01/15 12:36:10;;;;;;;14.67;12.50;;;7.10;65.60;;;;;;5031442;28;20626;-49
2021/01/15 12:38:37;;;;;;;13.93;11.83;;;7.10;65.40;;;;;;5031617;28;20671;-48
2021/01/15 12:41:04;;;;;;;14.23;12.80;;;7.10;65.40;;;;;;5031265;28;20689;-49
2021/01/15 12:43:30;;;;;;;16.67;13.87;;;7.10;65.70;;;;;;5031079;28;20630;-48
2021/01/15 12:45:57;;;;;;;18.60;13.10;;;7.10;66.00;;;;;;5031078;28;21038;-49
2021/01/15 12:48:24;;;;;;;16.33;12.43;;;7.10;65.90;;;;;;5031372;28;20718;-50
2021/01/15 12:50:52;;;;;;;15.67;11.90;;;7.00;66.20;;;;;;5030971;28;21197;-49
2021/01/15 12:53:19;;;;;;;14.60;12.00;;;7.00;66.60;;;;;;5031380;28;20630;-50
2021/01/15 12:55:46;;;;;;;15.40;13.23;;;7.00;66.60;;;;;;5030598;28;20713;-50
2021/01/15 12:58:13;;;;;;;20.10;12.00;;;7.00;66.80;;;;;;5011990;28;22017;-49
2021/01/15 13:00:39;;;;;;;17.17;13.73;;;7.00;67.10;;;;;;5030828;28;21032;-50